sensor_id;sensor_type;location;lat;lon;timestamp;pressure;altitude;pressure_sealevel;temperature
51561;BMP280;37654;51.262;17.058;2022-12-04T00:01:29;100109.16;;;1.53
51561;BMP280;37654;51.262;17.058;2022-12-04T00:03:56;100098.09;;;1.54
51561;BMP280;37654;51.262;17.058;2022-12-04T00:06:22;100094.72;;;1.55
51561;BMP280;37654;51.262;17.058;2022-12-04T00:08:48;100099.88;;;1.56
51561;BMP280;37654;51.262;17.058;2022-12-04T00:11:17;100094.69;;;1.53
51561;BMP280;37654;51.262;17.058;2022-12-04T00:13:43;100104.91;;;1.53
51561;BMP280;37654;51.262;17.058;2022-12-04T00:16:12;100118.59;;;1.57
51561;BMP280;37654;51.262;17.058;2022-12-04T00:18:37;100116.03;;;1.57
51561;BMP280;37654;51.262;17.058;2022-12-04T00:21:04;100110.09;;;1.59
51561;BMP280;37654;51.262;17.058;2022-12-04T00:23:30;100116.09;;;1.60
51561;BMP280;37654;51.262;17.058;2022-12-04T00:26:00;100115.19;;;1.58
51561;BMP280;37654;51.262;17.058;2022-12-04T00:28:26;100116.91;;;1.59
51561;BMP280;37654;51.262;17.058;2022-12-04T00:30:52;100105.84;;;1.58
51561;BMP280;37654;51.262;17.058;2022-12-04T00:33:17;100111.00;;;1.60
51561;BMP280;37654;51.262;17.058;2022-12-04T00:35:42;100100.78;;;1.61
51561;BMP280;37654;51.262;17.058;2022-12-04T00:38:08;100107.72;;;1.66
51561;BMP280;37654;51.262;17.058;2022-12-04T00:40:33;100093.19;;;1.64
51561;BMP280;37654;51.262;17.058;2022-12-04T00:42:59;100091.47;;;1.63
51561;BMP280;37654;51.262;17.058;2022-12-04T00:45:24;100096.53;;;1.62
51561;BMP280;37654;51.262;17.058;2022-12-04T00:47:50;100092.34;;;1.63
51561;BMP280;37654;51.262;17.058;2022-12-04T00:50:15;100082.13;;;1.63
51561;BMP280;37654;51.262;17.058;2022-12-04T00:52:40;100092.34;;;1.63
51561;BMP280;37654;51.262;17.058;2022-12-04T00:55:06;100091.47;;;1.63
51561;BMP280;37654;51.262;17.058;2022-12-04T00:57:32;100085.53;;;1.65
51561;BMP280;37654;51.262;17.058;2022-12-04T00:59:57;100080.50;;;1.68
51561;BMP280;37654;51.262;17.058;2022-12-04T01:02:22;100059.25;;;1.71
51561;BMP280;37654;51.262;17.058;2022-12-04T01:04:48;100069.53;;;1.74
51561;BMP280;37654;51.262;17.058;2022-12-04T01:07:13;100077.16;;;1.72
51561;BMP280;37654;51.262;17.058;2022-12-04T01:09:39;100072.06;;;1.72
51561;BMP280;37654;51.262;17.058;2022-12-04T01:12:04;100072.09;;;1.74
51561;BMP280;37654;51.262;17.058;2022-12-04T01:14:30;100069.53;;;1.74
51561;BMP280;37654;51.262;17.058;2022-12-04T01:16:55;100069.56;;;1.75
51561;BMP280;37654;51.262;17.058;2022-12-04T01:19:20;100071.25;;;1.75
51561;BMP280;37654;51.262;17.058;2022-12-04T01:21:46;100063.59;;;1.76
51561;BMP280;37654;51.262;17.058;2022-12-04T01:24:12;100052.56;;;1.77
51561;BMP280;37654;51.262;17.058;2022-12-04T01:26:37;100060.25;;;1.80
51561;BMP280;37654;51.262;17.058;2022-12-04T01:29:03;100065.38;;;1.80
51561;BMP280;37654;51.262;17.058;2022-12-04T01:31:29;100047.47;;;1.79
51561;BMP280;37654;51.262;17.058;2022-12-04T01:33:54;100056.84;;;1.80
51561;BMP280;37654;51.262;17.058;2022-12-04T01:36:22;100037.25;;;1.79
51561;BMP280;37654;51.262;17.058;2022-12-04T01:38:48;100040.59;;;1.76
51561;BMP280;37654;51.262;17.058;2022-12-04T01:41:16;100041.44;;;1.75
51561;BMP280;37654;51.262;17.058;2022-12-04T01:43:41;100027.84;;;1.76
51561;BMP280;37654;51.262;17.058;2022-12-04T01:46:07;100041.47;;;1.77
51561;BMP280;37654;51.262;17.058;2022-12-04T01:48:45;100024.47;;;1.77
51561;BMP280;37654;51.262;17.058;2022-12-04T01:51:36;100028.75;;;1.78
51561;BMP280;37654;51.262;17.058;2022-12-04T01:54:11;100038.91;;;1.77
51561;BMP280;37654;51.262;17.058;2022-12-04T01:56:54;100040.47;;;1.69
51561;BMP280;37654;51.262;17.058;2022-12-04T01:59:23;100043.81;;;1.63
51561;BMP280;37654;51.262;17.058;2022-12-04T02:01:56;100035.19;;;1.59
51561;BMP280;37654;51.262;17.058;2022-12-04T02:04:23;100035.09;;;1.53
51561;BMP280;37654;51.262;17.058;2022-12-04T02:06:49;100046.03;;;1.46
51561;BMP280;37654;51.262;17.058;2022-12-04T02:09:14;100040.94;;;1.46
51561;BMP280;37654;51.262;17.058;2022-12-04T02:17:26;100033.31;;;1.49
51561;BMP280;37654;51.262;17.058;2022-12-04T02:28:08;100027.47;;;1.56
51561;BMP280;37654;51.262;17.058;2022-12-04T02:30:39;100041.94;;;1.55
51561;BMP280;37654;51.262;17.058;2022-12-04T02:33:16;100038.59;;;1.59
51561;BMP280;37654;51.262;17.058;2022-12-04T02:35:50;100044.59;;;1.61
51561;BMP280;37654;51.262;17.058;2022-12-04T02:38:24;100032.75;;;1.64
51561;BMP280;37654;51.262;17.058;2022-12-04T02:40:57;100042.97;;;1.64
51561;BMP280;37654;51.262;17.058;2022-12-04T02:43:31;100040.47;;;1.67
51561;BMP280;37654;51.262;17.058;2022-12-04T02:46:06;100036.22;;;1.69
51561;BMP280;37654;51.262;17.058;2022-12-04T02:48:36;100039.75;;;1.74
51561;BMP280;37654;51.262;17.058;2022-12-04T02:51:05;100037.25;;;1.77
51561;BMP280;37654;51.262;17.058;2022-12-04T02:53:34;100047.47;;;1.79
51561;BMP280;37654;51.262;17.058;2022-12-04T02:56:05;100043.22;;;1.79
51561;BMP280;37654;51.262;17.058;2022-12-04T02:58:41;100042.44;;;1.83
51561;BMP280;37654;51.262;17.058;2022-12-04T03:01:11;100043.22;;;1.79
51561;BMP280;37654;51.262;17.058;2022-12-04T03:03:58;100046.69;;;1.81
51561;BMP280;37654;51.262;17.058;2022-12-04T03:06:27;100050.94;;;1.81
51561;BMP280;37654;51.262;17.058;2022-12-04T03:09:19;100050.94;;;1.81
51561;BMP280;37654;51.262;17.058;2022-12-04T03:11:51;100045.81;;;1.81
51561;BMP280;37654;51.262;17.058;2022-12-04T03:14:22;100045.84;;;1.82
51561;BMP280;37654;51.262;17.058;2022-12-04T03:16:52;100033.91;;;1.83
51561;BMP280;37654;51.262;17.058;2022-12-04T03:19:22;100028.94;;;1.90
51561;BMP280;37654;51.262;17.058;2022-12-04T03:21:53;100030.69;;;1.92
51561;BMP280;37654;51.262;17.058;2022-12-04T03:24:26;100040.09;;;1.95
51561;BMP280;37654;51.262;17.058;2022-12-04T03:29:26;100041.81;;;1.96
51561;BMP280;37654;51.262;17.058;2022-12-04T03:32:14;100048.53;;;1.91
51561;BMP280;37654;51.262;17.058;2022-12-04T03:34:57;100049.38;;;1.90
51561;BMP280;37654;51.262;17.058;2022-12-04T03:37:40;100045.06;;;1.86
51561;BMP280;37654;51.262;17.058;2022-12-04T03:42:46;100040.59;;;1.76
51561;BMP280;37654;51.262;17.058;2022-12-04T03:45:22;100045.63;;;1.70
51561;BMP280;37654;51.262;17.058;2022-12-04T03:47:57;100031.84;;;1.63
51561;BMP280;37654;51.262;17.058;2022-12-04T03:50:48;100032.81;;;1.67
51561;BMP280;37654;51.262;17.058;2022-12-04T03:56:02;100019.91;;;1.62
51561;BMP280;37654;51.262;17.058;2022-12-04T03:58:31;100025.88;;;1.61
51561;BMP280;37654;51.262;17.058;2022-12-04T04:01:00;100027.59;;;1.62
51561;BMP280;37654;51.262;17.058;2022-12-04T04:03:31;100026.00;;;1.66
51561;BMP280;37654;51.262;17.058;2022-12-04T04:06:01;100028.53;;;1.66
51561;BMP280;37654;51.262;17.058;2022-12-04T04:08:33;100027.69;;;1.67
51561;BMP280;37654;51.262;17.058;2022-12-04T04:11:15;100029.41;;;1.68
51561;BMP280;37654;51.262;17.058;2022-12-04T04:13:46;100026.91;;;1.71
51561;BMP280;37654;51.262;17.058;2022-12-04T04:16:28;100028.63;;;1.72
51561;BMP280;37654;51.262;17.058;2022-12-04T04:19:13;100014.13;;;1.71
51561;BMP280;37654;51.262;17.058;2022-12-04T04:21:53;100020.09;;;1.72
51561;BMP280;37654;51.262;17.058;2022-12-04T04:24:43;100006.50;;;1.73
51561;BMP280;37654;51.262;17.058;2022-12-04T04:27:10;100017.53;;;1.70
51561;BMP280;37654;51.262;17.058;2022-12-04T04:29:36;100012.44;;;1.70
51561;BMP280;37654;51.262;17.058;2022-12-04T04:37:52;100007.22;;;1.64
51561;BMP280;37654;51.262;17.058;2022-12-04T04:40:25;99997.03;;;1.67
51561;BMP280;37654;51.262;17.058;2022-12-04T04:43:10;100002.22;;;1.72
51561;BMP280;37654;51.262;17.058;2022-12-04T04:45:51;99993.03;;;1.81
51561;BMP280;37654;51.262;17.058;2022-12-04T04:48:33;99982.81;;;1.83
51561;BMP280;37654;51.262;17.058;2022-12-04T04:51:02;99986.28;;;1.88
51561;BMP280;37654;51.262;17.058;2022-12-04T04:53:34;99993.09;;;1.87
51561;BMP280;37654;51.262;17.058;2022-12-04T04:56:01;99998.25;;;1.90
51561;BMP280;37654;51.262;17.058;2022-12-04T04:58:26;99997.41;;;1.88
51561;BMP280;37654;51.262;17.058;2022-12-04T05:00:58;99992.19;;;1.84
51561;BMP280;37654;51.262;17.058;2022-12-04T05:03:25;99993.09;;;1.86
51561;BMP280;37654;51.262;17.058;2022-12-04T05:05:50;100004.16;;;1.85
51561;BMP280;37654;51.262;17.058;2022-12-04T05:08:16;99989.63;;;1.81
51561;BMP280;37654;51.262;17.058;2022-12-04T05:10:41;99991.31;;;1.82
51561;BMP280;37654;51.262;17.058;2022-12-04T05:13:08;99995.59;;;1.83
51561;BMP280;37654;51.262;17.058;2022-12-04T05:15:35;99994.75;;;1.82
51561;BMP280;37654;51.262;17.058;2022-12-04T05:18:01;100001.59;;;1.85
51561;BMP280;37654;51.262;17.058;2022-12-04T05:20:26;100000.69;;;1.81
51561;BMP280;37654;51.262;17.058;2022-12-04T05:22:51;100001.53;;;1.82
51561;BMP280;37654;51.262;17.058;2022-12-04T05:25:17;100004.94;;;1.81
51561;BMP280;37654;51.262;17.058;2022-12-04T05:27:43;99997.28;;;1.82
51561;BMP280;37654;51.262;17.058;2022-12-04T05:30:09;100010.06;;;1.84
51561;BMP280;37654;51.262;17.058;2022-12-04T05:32:35;100005.06;;;1.88
51561;BMP280;37654;51.262;17.058;2022-12-04T05:35:00;100009.25;;;1.85
51561;BMP280;37654;51.262;17.058;2022-12-04T05:37:26;99999.06;;;1.86
51561;BMP280;37654;51.262;17.058;2022-12-04T05:39:51;100012.69;;;1.85
51561;BMP280;37654;51.262;17.058;2022-12-04T05:42:17;99995.59;;;1.81
51561;BMP280;37654;51.262;17.058;2022-12-04T05:44:42;100006.59;;;1.80
51561;BMP280;37654;51.262;17.058;2022-12-04T05:47:08;100002.38;;;1.81
51561;BMP280;37654;51.262;17.058;2022-12-04T05:49:34;100000.63;;;1.78
51561;BMP280;37654;51.262;17.058;2022-12-04T05:52:03;99999.78;;;1.78
51561;BMP280;37654;51.262;17.058;2022-12-04T05:54:29;99998.03;;;1.77
51561;BMP280;37654;51.262;17.058;2022-12-04T05:56:54;100010.78;;;1.75
51561;BMP280;37654;51.262;17.058;2022-12-04T05:59:20;100017.56;;;1.73
51561;BMP280;37654;51.262;17.058;2022-12-04T06:01:45;100020.13;;;1.73
51561;BMP280;37654;51.262;17.058;2022-12-04T06:04:11;100025.22;;;1.73
51561;BMP280;37654;51.262;17.058;2022-12-04T06:06:37;100018.44;;;1.74
51561;BMP280;37654;51.262;17.058;2022-12-04T06:09:04;100024.47;;;1.77
51561;BMP280;37654;51.262;17.058;2022-12-04T06:11:32;100022.72;;;1.75
51561;BMP280;37654;51.262;17.058;2022-12-04T06:13:59;100012.50;;;1.76
51561;BMP280;37654;51.262;17.058;2022-12-04T06:16:30;100012.50;;;1.76
51561;BMP280;37654;51.262;17.058;2022-12-04T06:18:59;100010.84;;;1.78
51561;BMP280;37654;51.262;17.058;2022-12-04T06:21:27;100021.13;;;1.81
51561;BMP280;37654;51.262;17.058;2022-12-04T06:23:53;100028.69;;;1.77
51561;BMP280;37654;51.262;17.058;2022-12-04T06:26:19;100033.06;;;1.82
51561;BMP280;37654;51.262;17.058;2022-12-04T06:28:45;100034.72;;;1.80
51561;BMP280;37654;51.262;17.058;2022-12-04T06:31:13;100034.75;;;1.82
51561;BMP280;37654;51.262;17.058;2022-12-04T06:33:39;100041.56;;;1.81
51561;BMP280;37654;51.262;17.058;2022-12-04T06:36:11;100048.44;;;1.85
51561;BMP280;37654;51.262;17.058;2022-12-04T06:38:37;100052.72;;;1.86
51561;BMP280;37654;51.262;17.058;2022-12-04T06:41:08;100046.75;;;1.87
51561;BMP280;37654;51.262;17.058;2022-12-04T06:43:34;100045.06;;;1.88
51561;BMP280;37654;51.262;17.058;2022-12-04T06:48:25;100053.63;;;1.88
51561;BMP280;37654;51.262;17.058;2022-12-04T06:51:04;100050.22;;;1.89
51561;BMP280;37654;51.262;17.058;2022-12-04T06:53:31;100057.09;;;1.93
51561;BMP280;37654;51.262;17.058;2022-12-04T06:55:59;100041.81;;;1.96
51561;BMP280;37654;51.262;17.058;2022-12-04T06:58:25;100058.84;;;1.97
51561;BMP280;37654;51.262;17.058;2022-12-04T07:00:51;100040.22;;;2.02
51561;BMP280;37654;51.262;17.058;2022-12-04T07:03:18;100048.81;;;2.07
51561;BMP280;37654;51.262;17.058;2022-12-04T07:05:43;100041.19;;;2.10
51561;BMP280;37654;51.262;17.058;2022-12-04T07:08:08;100037.00;;;2.14
51561;BMP280;37654;51.262;17.058;2022-12-04T07:10:35;100033.59;;;2.15
51561;BMP280;37654;51.262;17.058;2022-12-04T07:13:01;100040.53;;;2.21
51561;BMP280;37654;51.262;17.058;2022-12-04T07:15:27;100032.06;;;2.25
51561;BMP280;37654;51.262;17.058;2022-12-04T07:17:52;100023.53;;;2.26
51561;BMP280;37654;51.262;17.058;2022-12-04T07:20:18;100033.81;;;2.29
51561;BMP280;37654;51.262;17.058;2022-12-04T07:22:43;100030.44;;;2.30
51561;BMP280;37654;51.262;17.058;2022-12-04T07:25:08;100031.25;;;2.28
51561;BMP280;37654;51.262;17.058;2022-12-04T07:27:34;100028.66;;;2.26
51561;BMP280;37654;51.262;17.058;2022-12-04T07:29:59;100031.25;;;2.28
51561;BMP280;37654;51.262;17.058;2022-12-04T07:32:24;100033.81;;;2.29
51561;BMP280;37654;51.262;17.058;2022-12-04T07:34:50;100022.78;;;2.32
51561;BMP280;37654;51.262;17.058;2022-12-04T07:37:15;100023.69;;;2.37
51561;BMP280;37654;51.262;17.058;2022-12-04T07:39:41;100027.22;;;2.42
51561;BMP280;37654;51.262;17.058;2022-12-04T07:42:06;100028.06;;;2.44
51561;BMP280;37654;51.262;17.058;2022-12-04T07:44:32;100023.00;;;2.46
51561;BMP280;37654;51.262;17.058;2022-12-04T07:46:57;100029.94;;;2.53
51561;BMP280;37654;51.262;17.058;2022-12-04T07:49:22;100024.84;;;2.56
51561;BMP280;37654;51.262;17.058;2022-12-04T07:51:48;100028.31;;;2.61
51561;BMP280;37654;51.262;17.058;2022-12-04T07:54:13;100036.16;;;2.72
51561;BMP280;37654;51.262;17.058;2022-12-04T07:56:39;100048.09;;;2.72
51561;BMP280;37654;51.262;17.058;2022-12-04T07:59:04;100050.66;;;2.72
51561;BMP280;37654;51.262;17.058;2022-12-04T08:01:30;100050.75;;;2.78
51561;BMP280;37654;51.262;17.058;2022-12-04T08:03:57;100046.63;;;2.88
51561;BMP280;37654;51.262;17.058;2022-12-04T08:06:24;100053.44;;;2.87
51561;BMP280;37654;51.262;17.058;2022-12-04T08:08:50;100056.91;;;2.92
51561;BMP280;37654;51.262;17.058;2022-12-04T08:11:19;100048.22;;;2.81
51561;BMP280;37654;51.262;17.058;2022-12-04T08:13:45;100039.75;;;2.85
51561;BMP280;37654;51.262;17.058;2022-12-04T08:16:11;100039.00;;;2.92
51561;BMP280;37654;51.262;17.058;2022-12-04T08:18:37;100041.59;;;2.95
51561;BMP280;37654;51.262;17.058;2022-12-04T08:23:30;100043.56;;;3.17
51561;BMP280;37654;51.262;17.058;2022-12-04T08:25:57;100036.81;;;3.23
51561;BMP280;37654;51.262;17.058;2022-12-04T08:28:23;100047.91;;;3.24
51561;BMP280;37654;51.262;17.058;2022-12-04T08:30:49;100037.75;;;3.29
51561;BMP280;37654;51.262;17.058;2022-12-04T08:33:14;100044.63;;;3.33
51561;BMP280;37654;51.262;17.058;2022-12-04T08:35:40;100048.09;;;3.37
51561;BMP280;37654;51.262;17.058;2022-12-04T08:38:05;100045.69;;;3.53
51561;BMP280;37654;51.262;17.058;2022-12-04T08:40:30;100049.16;;;3.61
51561;BMP280;37654;51.262;17.058;2022-12-04T08:42:56;100041.44;;;3.56
51561;BMP280;37654;51.262;17.058;2022-12-04T08:45:21;100044.03;;;3.58
51561;BMP280;37654;51.262;17.058;2022-12-04T08:47:46;100044.13;;;3.67
51561;BMP280;37654;51.262;17.058;2022-12-04T08:50:12;100053.59;;;3.72
51561;BMP280;37654;51.262;17.058;2022-12-04T08:52:37;100055.28;;;3.75
51561;BMP280;37654;51.262;17.058;2022-12-04T08:55:03;100054.47;;;3.76
51561;BMP280;37654;51.262;17.058;2022-12-04T08:57:28;100054.44;;;3.73
51561;BMP280;37654;51.262;17.058;2022-12-04T08:59:54;100056.13;;;3.71
51561;BMP280;37654;51.262;17.058;2022-12-04T09:02:19;100054.47;;;3.76
51561;BMP280;37654;51.262;17.058;2022-12-04T09:04:45;100058.75;;;3.78
51561;BMP280;37654;51.262;17.058;2022-12-04T09:07:10;100063.06;;;3.82
51561;BMP280;37654;51.262;17.058;2022-12-04T09:09:35;100062.22;;;3.84
51561;BMP280;37654;51.262;17.058;2022-12-04T09:12:01;100063.13;;;3.88
51561;BMP280;37654;51.262;17.058;2022-12-04T09:14:26;100062.22;;;3.86
51561;BMP280;37654;51.262;17.058;2022-12-04T09:16:52;100046.97;;;3.93
51561;BMP280;37654;51.262;17.058;2022-12-04T09:19:18;100053.75;;;3.93
51561;BMP280;37654;51.262;17.058;2022-12-04T09:21:44;100041.81;;;3.95
51561;BMP280;37654;51.262;17.058;2022-12-04T09:24:09;100046.16;;;4.03
51561;BMP280;37654;51.262;17.058;2022-12-04T09:26:35;100044.47;;;4.05
51561;BMP280;37654;51.262;17.058;2022-12-04T09:29:02;100038.47;;;4.03
51561;BMP280;37654;51.262;17.058;2022-12-04T09:31:29;100039.41;;;4.14
51561;BMP280;37654;51.262;17.058;2022-12-04T09:33:57;100034.28;;;4.14
51561;BMP280;37654;51.262;17.058;2022-12-04T09:36:22;100036.94;;;4.24
51561;BMP280;37654;51.262;17.058;2022-12-04T09:38:50;100033.53;;;4.27
51561;BMP280;37654;51.262;17.058;2022-12-04T09:44:34;100037.81;;;4.28
51561;BMP280;37654;51.262;17.058;2022-12-04T09:47:01;100048.16;;;4.36
51561;BMP280;37654;51.262;17.058;2022-12-04T09:49:34;100037.94;;;4.39
51561;BMP280;37654;51.262;17.058;2022-12-04T09:52:05;100030.25;;;4.45
51561;BMP280;37654;51.262;17.058;2022-12-04T09:54:37;100027.75;;;4.56
51561;BMP280;37654;51.262;17.058;2022-12-04T09:57:19;100036.38;;;4.71
51561;BMP280;37654;51.262;17.058;2022-12-04T09:59:46;100025.38;;;4.87
51561;BMP280;37654;51.262;17.058;2022-12-04T10:02:34;100027.94;;;4.87
51561;BMP280;37654;51.262;17.058;2022-12-04T10:05:01;100030.53;;;4.90
51561;BMP280;37654;51.262;17.058;2022-12-04T10:07:43;100033.97;;;4.93
51561;BMP280;37654;51.262;17.058;2022-12-04T10:10:18;100011.78;;;5.11
51561;BMP280;37654;51.262;17.058;2022-12-04T10:15:49;100023.81;;;5.27
51561;BMP280;37654;51.262;17.058;2022-12-04T10:18:52;100011.03;;;5.50
51561;BMP280;37654;51.262;17.058;2022-12-04T10:26:40;99997.44;;;6.13
51561;BMP280;37654;51.262;17.058;2022-12-04T10:29:19;99996.56;;;6.13
51561;BMP280;37654;51.262;17.058;2022-12-04T10:31:46;100002.56;;;6.16
51561;BMP280;37654;51.262;17.058;2022-12-04T10:34:24;100003.41;;;6.21
51561;BMP280;37654;51.262;17.058;2022-12-04T10:36:52;99999.13;;;6.38
51561;BMP280;37654;51.262;17.058;2022-12-04T10:44:18;99981.09;;;6.48
51561;BMP280;37654;51.262;17.058;2022-12-04T10:46:44;99981.88;;;6.68
51561;BMP280;37654;51.262;17.058;2022-12-04T10:49:20;99981.03;;;6.73
51561;BMP280;37654;51.262;17.058;2022-12-04T10:51:47;99985.22;;;6.95
51561;BMP280;37654;51.262;17.058;2022-12-04T10:56:51;99984.38;;;6.90
51561;BMP280;37654;51.262;17.058;2022-12-04T10:59:17;99978.41;;;6.76
51561;BMP280;37654;51.262;17.058;2022-12-04T11:01:43;99982.63;;;6.96
51561;BMP280;37654;51.262;17.058;2022-12-04T11:04:19;99972.28;;;7.04
51561;BMP280;37654;51.262;17.058;2022-12-04T11:06:46;99972.19;;;7.26
51561;BMP280;37654;51.262;17.058;2022-12-04T11:09:22;99974.88;;;7.05
51561;BMP280;37654;51.262;17.058;2022-12-04T11:11:49;99962.72;;;7.31
51561;BMP280;37654;51.262;17.058;2022-12-04T11:14:17;99966.91;;;7.49
51561;BMP280;37654;51.262;17.058;2022-12-04T11:16:47;99975.47;;;7.50
51561;BMP280;37654;51.262;17.058;2022-12-04T11:19:23;99959.13;;;7.54
51561;BMP280;37654;51.262;17.058;2022-12-04T11:21:49;99961.69;;;7.57
51561;BMP280;37654;51.262;17.058;2022-12-04T11:24:22;99957.41;;;7.53
51561;BMP280;37654;51.262;17.058;2022-12-04T11:26:48;99950.56;;;7.52
51561;BMP280;37654;51.262;17.058;2022-12-04T11:29:17;99953.84;;;7.76
51561;BMP280;37654;51.262;17.058;2022-12-04T11:31:54;99935.78;;;7.76
51561;BMP280;37654;51.262;17.058;2022-12-04T11:34:23;99954.63;;;7.84
51561;BMP280;37654;51.262;17.058;2022-12-04T11:36:54;99939.72;;;8.19
51561;BMP280;37654;51.262;17.058;2022-12-04T11:39:37;99932.03;;;8.11
51561;BMP280;37654;51.262;17.058;2022-12-04T11:42:13;99948.47;;;7.98
51561;BMP280;37654;51.262;17.058;2022-12-04T11:44:49;99932.88;;;8.16
51561;BMP280;37654;51.262;17.058;2022-12-04T11:47:17;99936.38;;;8.09
51561;BMP280;37654;51.262;17.058;2022-12-04T11:49:43;99938.13;;;8.04
51561;BMP280;37654;51.262;17.058;2022-12-04T11:52:25;99927.00;;;7.96
51561;BMP280;37654;51.262;17.058;2022-12-04T11:55:06;99936.34;;;8.12
51561;BMP280;37654;51.262;17.058;2022-12-04T11:57:44;99943.22;;;8.13
51561;BMP280;37654;51.262;17.058;2022-12-04T12:00:21;99938.28;;;7.86
51561;BMP280;37654;51.262;17.058;2022-12-04T12:19:56;99939.91;;;6.47
51561;BMP280;37654;51.262;17.058;2022-12-04T12:33:51;99940.63;;;6.81
51561;BMP280;37654;51.262;17.058;2022-12-04T12:36:19;99938.81;;;7.01
51561;BMP280;37654;51.262;17.058;2022-12-04T12:38:53;99938.75;;;7.14
51561;BMP280;37654;51.262;17.058;2022-12-04T12:41:23;99938.69;;;7.24
51561;BMP280;37654;51.262;17.058;2022-12-04T12:44:12;99943.50;;;7.74
51561;BMP280;37654;51.262;17.058;2022-12-04T12:46:57;99946.94;;;7.79
51561;BMP280;37654;51.262;17.058;2022-12-04T12:49:44;99943.31;;;7.98
51561;BMP280;37654;51.262;17.058;2022-12-04T12:58:15;99941.31;;;7.20
51561;BMP280;37654;51.262;17.058;2022-12-04T13:03:43;99936.28;;;6.96
51561;BMP280;37654;51.262;17.058;2022-12-04T13:06:14;99933.91;;;6.45
51561;BMP280;37654;51.262;17.058;2022-12-04T13:11:31;99927.13;;;5.76
51561;BMP280;37654;51.262;17.058;2022-12-04T13:13:59;99937.38;;;5.55
51561;BMP280;37654;51.262;17.058;2022-12-04T13:16:37;99921.97;;;5.46
51561;BMP280;37654;51.262;17.058;2022-12-04T13:21:42;99921.94;;;5.29
51561;BMP280;37654;51.262;17.058;2022-12-04T13:40:32;99917.47;;;4.69
51561;BMP280;37654;51.262;17.058;2022-12-04T13:43:21;99918.31;;;4.62
51561;BMP280;37654;51.262;17.058;2022-12-04T13:45:51;99920.00;;;4.54
51561;BMP280;37654;51.262;17.058;2022-12-04T13:48:33;99919.09;;;4.43
51561;BMP280;37654;51.262;17.058;2022-12-04T13:53:36;99919.00;;;4.35
51561;BMP280;37654;51.262;17.058;2022-12-04T13:56:03;99913.84;;;4.27
51561;BMP280;37654;51.262;17.058;2022-12-04T13:58:31;99910.38;;;4.21
51561;BMP280;37654;51.262;17.058;2022-12-04T14:01:03;99910.41;;;4.18
51561;BMP280;37654;51.262;17.058;2022-12-04T14:03:34;99908.63;;;4.14
51561;BMP280;37654;51.262;17.058;2022-12-04T14:06:19;99905.22;;;4.13
51561;BMP280;37654;51.262;17.058;2022-12-04T14:08:46;99919.69;;;4.06
51561;BMP280;37654;51.262;17.058;2022-12-04T14:11:16;99926.53;;;4.05
51561;BMP280;37654;51.262;17.058;2022-12-04T14:13:50;99934.19;;;3.99
51561;BMP280;37654;51.262;17.058;2022-12-04T14:16:36;99937.56;;;3.91
51561;BMP280;37654;51.262;17.058;2022-12-04T14:19:03;99935.78;;;3.85
51561;BMP280;37654;51.262;17.058;2022-12-04T14:21:40;99955.41;;;3.81
51561;BMP280;37654;51.262;17.058;2022-12-04T14:24:15;99950.19;;;3.72
51561;BMP280;37654;51.262;17.058;2022-12-04T14:26:50;99943.34;;;3.65
51561;BMP280;37654;51.262;17.058;2022-12-04T14:29:41;99933.88;;;3.59
51561;BMP280;37654;51.262;17.058;2022-12-04T14:32:14;99943.22;;;3.53
51561;BMP280;37654;51.262;17.058;2022-12-04T14:34:40;99946.59;;;3.49
51561;BMP280;37654;51.262;17.058;2022-12-04T14:37:05;99946.53;;;3.43
51561;BMP280;37654;51.262;17.058;2022-12-04T14:39:45;99941.41;;;3.40
51561;BMP280;37654;51.262;17.058;2022-12-04T14:44:40;99945.53;;;3.27
51561;BMP280;37654;51.262;17.058;2022-12-04T14:52:42;99943.63;;;3.09
51561;BMP280;37654;51.262;17.058;2022-12-04T14:58:13;99955.44;;;2.97
51561;BMP280;37654;51.262;17.058;2022-12-04T15:00:54;99960.50;;;2.91
51561;BMP280;37654;51.262;17.058;2022-12-04T15:03:21;99964.69;;;2.83
51561;BMP280;37654;51.262;17.058;2022-12-04T15:05:48;99966.25;;;2.74
51561;BMP280;37654;51.262;17.058;2022-12-04T15:08:14;99961.09;;;2.70
51561;BMP280;37654;51.262;17.058;2022-12-04T15:10:47;99961.00;;;2.65
51561;BMP280;37654;51.262;17.058;2022-12-04T15:13:32;99957.50;;;2.56
51561;BMP280;37654;51.262;17.058;2022-12-04T15:16:09;99960.88;;;2.53
51561;BMP280;37654;51.262;17.058;2022-12-04T15:18:39;99954.00;;;2.51
51561;BMP280;37654;51.262;17.058;2022-12-04T15:21:06;99948.88;;;2.48
51561;BMP280;37654;51.262;17.058;2022-12-04T15:23:36;99948.78;;;2.44
51561;BMP280;37654;51.262;17.058;2022-12-04T15:26:08;99957.31;;;2.44
51561;BMP280;37654;51.262;17.058;2022-12-04T15:31:35;99958.88;;;2.33
51561;BMP280;37654;51.262;17.058;2022-12-04T15:34:04;99946.88;;;2.28
51561;BMP280;37654;51.262;17.058;2022-12-04T15:36:53;99948.53;;;2.24
51561;BMP280;37654;51.262;17.058;2022-12-04T15:39:19;99952.84;;;2.27
51561;BMP280;37654;51.262;17.058;2022-12-04T15:41:45;99956.22;;;2.24
51561;BMP280;37654;51.262;17.058;2022-12-04T15:44:28;99956.16;;;2.23
51561;BMP280;37654;51.262;17.058;2022-12-04T15:47:00;99952.75;;;2.22
51561;BMP280;37654;51.262;17.058;2022-12-04T15:49:31;99951.94;;;2.23
51561;BMP280;37654;51.262;17.058;2022-12-04T15:52:14;99962.16;;;2.23
51561;BMP280;37654;51.262;17.058;2022-12-04T15:55:05;99966.44;;;2.24
51561;BMP280;37654;51.262;17.058;2022-12-04T15:57:55;99972.41;;;2.23
51561;BMP280;37654;51.262;17.058;2022-12-04T16:00:35;99969.78;;;2.22
51561;BMP280;37654;51.262;17.058;2022-12-04T16:03:23;99979.16;;;2.20
51561;BMP280;37654;51.262;17.058;2022-12-04T16:06:07;99969.78;;;2.20
51561;BMP280;37654;51.262;17.058;2022-12-04T16:08:37;99967.22;;;2.20
51561;BMP280;37654;51.262;17.058;2022-12-04T16:11:55;99962.97;;;2.21
51561;BMP280;37654;51.262;17.058;2022-12-04T16:14:12;99975.72;;;2.18
51561;BMP280;37654;51.262;17.058;2022-12-04T16:16:40;99975.72;;;2.19
51561;BMP280;37654;51.262;17.058;2022-12-04T16:19:14;99958.66;;;2.18
51561;BMP280;37654;51.262;17.058;2022-12-04T16:21:40;99957.00;;;2.20
51561;BMP280;37654;51.262;17.058;2022-12-04T16:24:06;99972.34;;;2.20
51561;BMP280;37654;51.262;17.058;2022-12-04T16:26:34;99968.91;;;2.18